logo
Search for airport 
image banner adimage banner adimage banner ad
image banner ad

MMHEU - El Universal

Located in Cuauhtémoc, Mexico

ICAO - , IATA -

Data provided by Airmate  

General information

Coordinates: N19°26'4" W99°8'59"
Elevation is 7437 feet MSL.
Magnetic variation is 3° East
View others Airports in Distrito Federal

Operational data

Special qualification required
Current time UTC:
Current local time:
METAR: MMMX 141740Z 04011KT 8SM SCT020 SCT220 22/10 A3043 NOSIG RMK SLP126 57006 904 8/802 HZY
TAF: TAF MMMX 141727Z 1418/1518 32005KT P6SM SCT020 SCT220 TX24/1421Z TN15/1512Z FM141930 32008KT P6SM SCT020CB BKN080 BECMG 1420/1421 BKN020CB TEMPO 1422/1501 3SM TSRA OVC020CB FM150300 02005KT 6SM -RA BKN020CB BKN080 FM150600 07005KT P6SM SCT020 SCT080 FM151200 07005KT P6SM SCT020 BKN080
View NOTAMs / SUP AIP / TFR affecting this airport [VIEW]
Communications frequencies: [VIEW]

Runways:

Airport contact information

Address: Cuauhtémoc Mexico

Satellite view of MMHEU